State Commercial Banks
Standard Industrial Classification: SIC 6022
Industry Insider Sentiment Analysis
The State Commercial Banks sector (SIC 6022) acts as a critical barometer for broader economic health. Our real-time monitoring reveals total transactions. Monitoring "cluster buying" is one of the most reliable leading indicators for future sector performance. By analyzing aggregate data across this specific Standard Industrial Classification, investors can filter out individual company volatility and identify high-conviction trends. When multiple directors and officers within the same industry move capital simultaneously, it often signals an upcoming sector-wide revaluation or a fundamental shift in supply chain dynamics that has yet to be recognized by the broader public market.
| Filing Date | Trade Date | Ticker | Company | Reporting Person | Relationship | Type | Price | Qty | Total, $ | Owned After |
|---|---|---|---|---|---|---|---|---|---|---|
| 2025-01-07 00:52 | 2025-01-02 | AMAL | Amalgamated Financial Corp. | Brown Sam D. | Officer | SELL | $33.41 | 8,269 | $276,242 | 36,045 |
| 2025-01-06 21:15 | 2025-01-03 | CZNC | CITIZENS & NORTHERN CORP | Pellegrino Frank G | Director | BUY | $18.31 | 254 | $4,651 | 40,960 |
| 2025-01-06 20:58 | 2025-01-02 | ISBA | ISABELLA BANK CORP | Schwind Jerome E | Director, Officer | BUY | $24.69 | 16 | $400 | 28,482 |
| 2025-01-06 20:58 | 2025-01-02 | ISBA | ISABELLA BANK CORP | WHEELER PEGGY | Officer | BUY | $24.69 | 20 | $500 | 8,760 |
| 2025-01-06 19:46 | 2025-01-02 | PB | PROSPERITY BANCSHARES INC | HOLMES NED S | Director | SELL | $75.26 | 1,100 | $82,785 | 47,700 |
| 2025-01-03 21:01 | 2025-01-02 | QNBC | QNB CORP. | Gorski Gerald E | Director | BUY | $33.92 | 117 | $3,969 | 287 |
| 2025-01-03 21:09 | 2025-01-02 | QNBC | QNB CORP. | Ray-Chaudhuri Ranajoy | Director | BUY | $33.92 | 117 | $3,969 | 1,414 |
| 2025-01-03 20:52 | 2025-01-02 | QNBC | QNB CORP. | Bimes Randy S. | Director | BUY | $33.92 | 117 | $3,969 | 247,734 |
| 2025-01-03 20:46 | 2025-01-02 | QNBC | QNB CORP. | Bergman Laurie | Director | BUY | $33.92 | 117 | $3,969 | 1,414 |
| 2025-01-03 21:05 | 2025-01-02 | QNBC | QNB CORP. | Mann Jennifer L | Director | BUY | $33.92 | 117 | $3,969 | 8,754 |
| 2025-01-03 21:25 | 2025-01-02 | QNBC | QNB CORP. | Stevenson Scott R | Director | BUY | $33.92 | 117 | $3,969 | 1,701 |
| 2025-01-03 21:17 | 2025-01-02 | QNBC | QNB CORP. | Stauffer W Randall | Director | BUY | $33.92 | 117 | $3,969 | 54,299 |
| 2025-01-03 20:41 | 2025-01-02 | QNBC | QNB CORP. | BAYLES AUTUMN R | Director | BUY | $33.92 | 117 | $3,969 | 2,337 |
| 2025-01-03 20:56 | 2025-01-02 | QNBC | QNB CORP. | BROWN KENNETH F JR | Director | BUY | $33.92 | 117 | $3,969 | 150,714 |
| 2025-01-04 00:29 | 2025-01-02 | MBWM | MERCANTILE BANK CORP | KAMINSKI ROBERT B | Director | SELL | $44.61 | 250 | $11,153 | 86,980 |
| 2025-01-02 19:14 | 2024-12-31 | MPB | MID PENN BANCORP INC | Brumbaugh Kimberly J | Director | BUY | $28.84 | 87 | $2,509 | 8,809 |
| 2025-01-02 19:21 | 2024-12-31 | MPB | MID PENN BANCORP INC | Evans Albert J. | Director | BUY | $28.84 | 347 | $10,007 | 35,084 |
| 2025-01-02 19:18 | 2024-12-31 | MPB | MID PENN BANCORP INC | Frank Joel L. | Director | BUY | $28.84 | 87 | $2,509 | 7,813 |
| 2025-01-02 19:23 | 2024-12-31 | MPB | MID PENN BANCORP INC | Abel Robert A | Director | BUY | $28.84 | 17 | $490 | 6,384 |
| 2025-01-02 19:16 | 2024-12-31 | MPB | MID PENN BANCORP INC | De Soto Matthew G | Director | BUY | $28.84 | 278 | $8,018 | 100,587 |
| 2025-01-02 19:11 | 2024-12-31 | MPB | MID PENN BANCORP INC | MOWERY THEODORE W | Director | BUY | $28.84 | 69 | $1,990 | 37,743 |
| 2024-12-31 21:24 | 2024-12-27 | QNBC | QNB CORP. | Bimes Randy S. | Director | BUY | $32.92 | 304 | $10,000 | 247,617 |
| 2025-01-01 01:49 | 2024-11-21 | RBCAA | REPUBLIC BANCORP INC /KY/ | Howell Heather V | Director | SELL | $75.63 | 1,496 | $113,142 | 7,491 |
| 2024-12-31 21:38 | 2024-12-27 | QNBC | QNB CORP. | Mann Jennifer L | Director | BUY | $32.92 | 304 | $10,000 | 8,637 |
| 2024-12-31 19:58 | 2024-12-30 | CSBB | CSB Bancorp, Inc. | STEINER EDDIE L | Director, Officer | BUY | $38.70 | 2,000 | $77,400 | 24,242 |
| 2024-12-30 21:30 | 2024-12-27 | FMBM | F&M BANK CORP | Willingham John A. | Director | BUY | $20.20 | 250 | $5,050 | 19,403 |
| 2024-12-30 20:17 | 2024-12-26 | PB | PROSPERITY BANCSHARES INC | HOLMES NED S | Director | SELL | $76.04 | 1,100 | $83,640 | 47,800 |
| 2024-12-26 21:05 | 2024-12-24 | FMBM | F&M BANK CORP | Driest Charles C. | Officer | BUY | $20.24 | 563 | $11,395 | 7,246 |
| 2024-12-26 22:42 | 2024-12-23 | OSBC | OLD SECOND BANCORP INC | Temple Rocks Patti | Director | BUY | $17.79 | 5,625 | $100,068 | 18,679 |
| 2024-12-26 18:04 | 2024-12-23 | CSBB | CSB Bancorp, Inc. | STEINER EDDIE L | Director, Officer | BUY | $38.35 | 623 | $23,890 | 39,850 |
| 2024-12-24 00:54 | 2024-12-19 | FMBM | F&M BANK CORP | Houff Neil A. | Director | BUY | $19.90 | 301 | $5,990 | 686 |
| 2024-12-23 22:40 | 2024-12-20 | FMBM | F&M BANK CORP | Driest Charles C. | Officer | BUY | $20.24 | 1,253 | $25,366 | 6,683 |
| 2024-12-24 00:34 | 2024-12-19 | FMBM | F&M BANK CORP | Thomas Daphyne S. | Director | BUY | $19.90 | 301 | $5,990 | 930 |
| 2024-12-23 22:54 | 2024-12-19 | FMBM | F&M BANK CORP | Hutman Hannah W. | Director | BUY | $19.90 | 301 | $5,990 | 2,147 |
| 2024-12-23 23:02 | 2024-12-19 | FMBM | F&M BANK CORP | Keeler Anne B | Director | BUY | $19.90 | 301 | $5,990 | 1,877 |
| 2024-12-24 00:15 | 2024-12-19 | FMBM | F&M BANK CORP | WRAY PETER H | Director | BUY | $19.90 | 301 | $5,990 | 6,297 |
| 2024-12-23 23:14 | 2024-12-19 | FMBM | F&M BANK CORP | BURKHOLDER EDWARD RAY | Director | BUY | $19.90 | 402 | $8,000 | 4,222 |
| 2024-12-24 01:25 | 2024-12-23 | FBK | FB Financial Corp | Ayers James W. | 10% owner | BUY | $51.86 | 2,000 | $103,720 | 10,911,841 |
| 2024-12-23 23:42 | 2024-12-19 | FMBM | F&M BANK CORP | Runion Christopher S. | Director | BUY | $19.90 | 301 | $5,990 | 6,729 |
| 2024-12-24 00:43 | 2024-12-19 | MCB | Metropolitan Bank Holding Corp. | Lublin Scott | Officer | SELL | $58.77 | 3,000 | $176,319 | 52,253 |
| 2024-12-24 01:03 | 2024-12-19 | FMBM | F&M BANK CORP | Willingham John A. | Director | BUY | $20.05 | 551 | $11,050 | 19,153 |
| 2024-12-23 21:54 | 2024-12-20 | FMBM | F&M BANK CORP | Willingham John A. | Officer | BUY | $20.24 | 1,253 | $25,366 | 6,683 |
| 2024-12-24 00:23 | 2024-12-19 | FMBM | F&M BANK CORP | WITHERS DEAN W | Director | BUY | $19.90 | 301 | $5,990 | 50,497 |
| 2024-12-24 04:55 | 2024-12-19 | NWFL | NORWOOD FINANCIAL CORP | Schmalzle Ronald R | Director | BUY | $26.00 | 7,692 | $199,992 | 15,510 |
| 2024-12-20 22:06 | 2024-12-13 | CIVB | CIVISTA BANCSHARES, INC. | Whinnem Ian | Officer | BUY | $22.30 | 1,000 | $22,300 | 1,000 |
| 2024-12-20 00:20 | 2024-12-18 | FMBM | F&M BANK CORP | Driest Charles C. | Officer | BUY | $20.05 | 1,092 | $21,895 | 5,430 |
| 2024-12-20 01:35 | 2024-12-19 | FMBM | F&M BANK CORP | Willingham John A. | Director | BUY | $19.90 | 408 | $8,119 | 18,602 |
| 2024-12-19 16:44 | 2024-12-18 | UBSI | UNITED BANKSHARES INC/WV | NESSELROAD MARK R | Director | SELL | $39.16 | 6,000 | $234,965 | 35,424 |
| 2024-12-19 19:00 | 2024-12-18 | CSBB | CSB Bancorp, Inc. | STEINER EDDIE L | Director, Officer | BUY | $38.75 | 185 | $7,169 | 22,117 |
| 2024-12-20 01:02 | 2024-12-17 | CBSH | COMMERCE BANCSHARES INC /MO/ | BARTH KEVIN G | Officer | SELL | $67.54 | 1,582 | $106,853 | 65,409 |
Sector-Wide Insider Alpha
Analyzing insider movements across the State Commercial Banks sector provides a macro-view of executive conviction. When multiple leaders in different companies within the same SIC code (6022) simultaneously buy shares, it often indicates an industry-wide undervaluation or a positive shift in market cycles.
SEC Filings in State Commercial Banks
Every transaction in the State Commercial Banks industry is reported via Form 4 disclosures. By filtering these filings by industry, investors can detect institutional-scale sentiment shifts before they are reflected in broader market indices, following the capital flow of those with intimate industry knowledge.
UNDERSTANDING THE DATA
FILING DATE: The date and time when the transaction was reported to the SEC. This is when the public first receives the information.
TRADE DATE: The actual day the insider executed the purchase or sale in the market.
INDUSTRY: The specific market sector the company operates in. Useful for identifying broader institutional capital flows across sectors.
OWNED AFTER: The total number of shares held by the insider following the transaction. This highlights the insider's remaining conviction in the company.
CHANGE %: The percentage increase or decrease of the insider's total position. Large percentage changes often carry more weight than the dollar amount alone.
TRADE TYPES DEFINITIONS
BUY: An open market purchase. Typically indicates an insider's belief that the stock is undervalued or poised for growth.
SELL: An open market sale. While often used for diversification or liquidity, large or unexpected sales can be a warning signal.
OPT+S (OPTION EXERCISE & SALE): This occurs when an insider exercises their stock options and sells them immediately. Often part of a structured compensation plan.